sensor_id;sensor_type;location;lat;lon;timestamp;temperature;humidity
9167;DHT22;4618;48.818;9.088;2023-03-01T00:01:19;-2.90;99.90
9167;DHT22;4618;48.818;9.088;2023-03-01T00:03:45;-3.00;99.90
9167;DHT22;4618;48.818;9.088;2023-03-01T00:06:11;-3.10;99.90
9167;DHT22;4618;48.818;9.088;2023-03-01T00:08:37;-3.20;99.90
9167;DHT22;4618;48.818;9.088;2023-03-01T00:13:39;-3.30;1.00
9167;DHT22;4618;48.818;9.088;2023-03-01T00:16:07;-3.30;1.00
9167;DHT22;4618;48.818;9.088;2023-03-01T00:18:33;-3.40;1.00
9167;DHT22;4618;48.818;9.088;2023-03-01T00:20:59;-3.30;1.00
9167;DHT22;4618;48.818;9.088;2023-03-01T00:23:25;-3.30;1.00
9167;DHT22;4618;48.818;9.088;2023-03-01T00:25:51;-3.40;1.00
9167;DHT22;4618;48.818;9.088;2023-03-01T00:28:17;-3.40;32.50
9167;DHT22;4618;48.818;9.088;2023-03-01T00:30:44;-3.40;86.10
9167;DHT22;4618;48.818;9.088;2023-03-01T00:33:09;-3.40;99.90
9167;DHT22;4618;48.818;9.088;2023-03-01T00:35:36;-3.30;99.90
9167;DHT22;4618;48.818;9.088;2023-03-01T00:38:02;-3.10;77.90
9167;DHT22;4618;48.818;9.088;2023-03-01T00:40:31;-3.10;1.00
9167;DHT22;4618;48.818;9.088;2023-03-01T00:42:57;-3.10;1.00
9167;DHT22;4618;48.818;9.088;2023-03-01T00:45:22;-3.30;1.00
9167;DHT22;4618;48.818;9.088;2023-03-01T00:47:50;-3.50;1.00
9167;DHT22;4618;48.818;9.088;2023-03-01T00:50:16;-3.50;99.90
9167;DHT22;4618;48.818;9.088;2023-03-01T00:52:41;-3.50;99.90
9167;DHT22;4618;48.818;9.088;2023-03-01T00:55:07;-3.40;99.90
9167;DHT22;4618;48.818;9.088;2023-03-01T00:57:33;-3.40;99.90
9167;DHT22;4618;48.818;9.088;2023-03-01T00:59:59;-3.50;99.90
9167;DHT22;4618;48.818;9.088;2023-03-01T01:02:25;-3.50;99.90
9167;DHT22;4618;48.818;9.088;2023-03-01T01:04:51;-3.60;99.90
9167;DHT22;4618;48.818;9.088;2023-03-01T01:07:16;-3.80;99.90
9167;DHT22;4618;48.818;9.088;2023-03-01T01:09:42;-3.90;99.90
9167;DHT22;4618;48.818;9.088;2023-03-01T01:12:08;-4.10;99.90
9167;DHT22;4618;48.818;9.088;2023-03-01T01:14:34;-4.10;99.90
9167;DHT22;4618;48.818;9.088;2023-03-01T01:17:00;-4.20;99.90
9167;DHT22;4618;48.818;9.088;2023-03-01T01:19:26;-4.20;99.90
9167;DHT22;4618;48.818;9.088;2023-03-01T01:21:51;-4.20;99.90
9167;DHT22;4618;48.818;9.088;2023-03-01T01:24:18;-4.30;1.00
9167;DHT22;4618;48.818;9.088;2023-03-01T01:26:43;-4.30;1.00
9167;DHT22;4618;48.818;9.088;2023-03-01T01:29:09;-4.30;1.00
9167;DHT22;4618;48.818;9.088;2023-03-01T01:31:36;-4.40;1.00
9167;DHT22;4618;48.818;9.088;2023-03-01T01:34:05;-4.40;1.00
9167;DHT22;4618;48.818;9.088;2023-03-01T01:36:32;-4.30;12.70
9167;DHT22;4618;48.818;9.088;2023-03-01T01:38:58;-4.00;99.90
9167;DHT22;4618;48.818;9.088;2023-03-01T01:41:25;-4.00;99.90
9167;DHT22;4618;48.818;9.088;2023-03-01T01:44:20;-3.90;99.90
9167;DHT22;4618;48.818;9.088;2023-03-01T01:46:52;-4.00;24.30
9167;DHT22;4618;48.818;9.088;2023-03-01T01:51:55;-4.10;1.00
9167;DHT22;4618;48.818;9.088;2023-03-01T01:54:26;-4.00;1.00
9167;DHT22;4618;48.818;9.088;2023-03-01T01:57:00;-4.00;1.00
9167;DHT22;4618;48.818;9.088;2023-03-01T01:59:28;-4.00;1.00
9167;DHT22;4618;48.818;9.088;2023-03-01T02:01:54;-4.00;1.00
9167;DHT22;4618;48.818;9.088;2023-03-01T02:04:20;-3.90;1.00
9167;DHT22;4618;48.818;9.088;2023-03-01T02:06:53;-3.90;1.00
9167;DHT22;4618;48.818;9.088;2023-03-01T02:09:22;-3.90;1.00
9167;DHT22;4618;48.818;9.088;2023-03-01T02:11:49;-3.80;1.00
9167;DHT22;4618;48.818;9.088;2023-03-01T02:14:16;-3.70;1.00
9167;DHT22;4618;48.818;9.088;2023-03-01T02:16:41;-3.60;1.00
9167;DHT22;4618;48.818;9.088;2023-03-01T02:19:08;-3.50;1.00
9167;DHT22;4618;48.818;9.088;2023-03-01T02:22:22;-3.40;1.00
9167;DHT22;4618;48.818;9.088;2023-03-01T02:27:20;-3.40;99.90
9167;DHT22;4618;48.818;9.088;2023-03-01T02:29:47;-3.20;99.90
9167;DHT22;4618;48.818;9.088;2023-03-01T02:32:14;-3.10;99.90
9167;DHT22;4618;48.818;9.088;2023-03-01T02:34:40;-3.10;1.00
9167;DHT22;4618;48.818;9.088;2023-03-01T02:37:11;-3.00;1.00
9167;DHT22;4618;48.818;9.088;2023-03-01T02:39:44;-2.80;1.00
9167;DHT22;4618;48.818;9.088;2023-03-01T02:42:14;-2.80;1.00
9167;DHT22;4618;48.818;9.088;2023-03-01T02:44:42;-2.80;1.00
9167;DHT22;4618;48.818;9.088;2023-03-01T02:47:07;-2.80;1.00
9167;DHT22;4618;48.818;9.088;2023-03-01T02:49:35;-2.90;1.00
9167;DHT22;4618;48.818;9.088;2023-03-01T02:55:11;-2.90;1.00
9167;DHT22;4618;48.818;9.088;2023-03-01T02:57:40;-2.90;1.00
9167;DHT22;4618;48.818;9.088;2023-03-01T03:00:12;-2.90;1.00
9167;DHT22;4618;48.818;9.088;2023-03-01T03:02:48;-2.80;1.00
9167;DHT22;4618;48.818;9.088;2023-03-01T03:05:19;-2.80;1.00
9167;DHT22;4618;48.818;9.088;2023-03-01T03:07:47;-2.80;99.90
9167;DHT22;4618;48.818;9.088;2023-03-01T03:10:15;-2.80;99.90
9167;DHT22;4618;48.818;9.088;2023-03-01T03:12:42;-2.70;1.00
9167;DHT22;4618;48.818;9.088;2023-03-01T03:15:09;-2.60;99.90
9167;DHT22;4618;48.818;9.088;2023-03-01T03:17:37;-2.50;99.90
9167;DHT22;4618;48.818;9.088;2023-03-01T03:20:05;-2.50;99.90
9167;DHT22;4618;48.818;9.088;2023-03-01T03:22:32;-2.40;99.90
9167;DHT22;4618;48.818;9.088;2023-03-01T03:24:59;-2.40;99.90
9167;DHT22;4618;48.818;9.088;2023-03-01T03:27:25;-2.40;99.90
9167;DHT22;4618;48.818;9.088;2023-03-01T03:29:50;-2.30;99.90
9167;DHT22;4618;48.818;9.088;2023-03-01T03:32:16;-2.30;99.90
9167;DHT22;4618;48.818;9.088;2023-03-01T03:34:41;-2.20;2.80
9167;DHT22;4618;48.818;9.088;2023-03-01T03:37:07;-2.30;99.90
9167;DHT22;4618;48.818;9.088;2023-03-01T03:39:52;-2.20;99.90
9167;DHT22;4618;48.818;9.088;2023-03-01T03:42:21;-2.20;99.90
9167;DHT22;4618;48.818;9.088;2023-03-01T03:44:47;-2.20;99.10
9167;DHT22;4618;48.818;9.088;2023-03-01T03:47:13;-2.20;99.90
9167;DHT22;4618;48.818;9.088;2023-03-01T03:49:38;-2.20;99.90
9167;DHT22;4618;48.818;9.088;2023-03-01T03:52:04;-2.00;32.60
9167;DHT22;4618;48.818;9.088;2023-03-01T03:54:29;-2.10;99.90
9167;DHT22;4618;48.818;9.088;2023-03-01T03:56:55;-2.00;99.90
9167;DHT22;4618;48.818;9.088;2023-03-01T03:59:20;-2.00;99.90
9167;DHT22;4618;48.818;9.088;2023-03-01T04:01:46;-2.00;99.90
9167;DHT22;4618;48.818;9.088;2023-03-01T04:04:11;-2.00;99.90
9167;DHT22;4618;48.818;9.088;2023-03-01T04:06:37;-2.00;99.90
9167;DHT22;4618;48.818;9.088;2023-03-01T04:09:03;-1.90;1.00
9167;DHT22;4618;48.818;9.088;2023-03-01T04:11:28;-2.00;1.00
9167;DHT22;4618;48.818;9.088;2023-03-01T04:13:56;-2.00;94.30
9167;DHT22;4618;48.818;9.088;2023-03-01T04:16:22;-2.10;1.00
9167;DHT22;4618;48.818;9.088;2023-03-01T04:18:48;-2.00;14.10
9167;DHT22;4618;48.818;9.088;2023-03-01T04:21:14;-2.00;54.80
9167;DHT22;4618;48.818;9.088;2023-03-01T04:23:40;-2.00;99.90
9167;DHT22;4618;48.818;9.088;2023-03-01T04:26:06;-2.00;99.90
9167;DHT22;4618;48.818;9.088;2023-03-01T04:28:35;-2.00;78.20
9167;DHT22;4618;48.818;9.088;2023-03-01T04:31:06;-1.90;99.90
9167;DHT22;4618;48.818;9.088;2023-03-01T04:33:43;-1.90;99.90
9167;DHT22;4618;48.818;9.088;2023-03-01T04:36:09;-1.90;92.10
9167;DHT22;4618;48.818;9.088;2023-03-01T04:38:37;-1.80;1.10
9167;DHT22;4618;48.818;9.088;2023-03-01T04:41:04;-1.80;83.60
9167;DHT22;4618;48.818;9.088;2023-03-01T04:43:30;-1.80;97.20
9167;DHT22;4618;48.818;9.088;2023-03-01T04:46:03;-1.80;99.90
9167;DHT22;4618;48.818;9.088;2023-03-01T04:48:30;-1.80;99.90
9167;DHT22;4618;48.818;9.088;2023-03-01T04:50:58;-1.70;99.90
9167;DHT22;4618;48.818;9.088;2023-03-01T04:53:24;-1.60;99.90
9167;DHT22;4618;48.818;9.088;2023-03-01T04:55:50;-1.50;77.40
9167;DHT22;4618;48.818;9.088;2023-03-01T04:58:16;-1.50;1.00
9167;DHT22;4618;48.818;9.088;2023-03-01T05:00:41;-1.50;1.00
9167;DHT22;4618;48.818;9.088;2023-03-01T05:03:08;-1.50;1.00
9167;DHT22;4618;48.818;9.088;2023-03-01T05:05:36;-1.60;1.00
9167;DHT22;4618;48.818;9.088;2023-03-01T05:08:07;-1.60;1.00
9167;DHT22;4618;48.818;9.088;2023-03-01T05:10:35;-1.50;1.00
9167;DHT22;4618;48.818;9.088;2023-03-01T05:13:03;-1.50;1.00
9167;DHT22;4618;48.818;9.088;2023-03-01T05:15:30;-1.50;1.00
9167;DHT22;4618;48.818;9.088;2023-03-01T05:17:58;-1.50;1.00
9167;DHT22;4618;48.818;9.088;2023-03-01T05:20:26;-1.50;1.00
9167;DHT22;4618;48.818;9.088;2023-03-01T05:22:55;-1.30;1.00
9167;DHT22;4618;48.818;9.088;2023-03-01T05:25:21;-1.10;99.90
9167;DHT22;4618;48.818;9.088;2023-03-01T05:27:47;-1.20;99.90
9167;DHT22;4618;48.818;9.088;2023-03-01T05:30:12;-1.20;1.00
9167;DHT22;4618;48.818;9.088;2023-03-01T05:32:46;-1.20;1.00
9167;DHT22;4618;48.818;9.088;2023-03-01T05:35:14;-1.20;1.00
9167;DHT22;4618;48.818;9.088;2023-03-01T05:37:42;-1.20;1.00
9167;DHT22;4618;48.818;9.088;2023-03-01T05:40:10;-1.20;1.00
9167;DHT22;4618;48.818;9.088;2023-03-01T05:42:42;-1.20;1.00
9167;DHT22;4618;48.818;9.088;2023-03-01T05:45:09;-1.20;1.00
9167;DHT22;4618;48.818;9.088;2023-03-01T05:47:35;-1.10;1.00
9167;DHT22;4618;48.818;9.088;2023-03-01T05:50:01;-1.10;1.00
9167;DHT22;4618;48.818;9.088;2023-03-01T05:52:27;-1.10;1.00
9167;DHT22;4618;48.818;9.088;2023-03-01T05:54:52;-0.90;1.00
9167;DHT22;4618;48.818;9.088;2023-03-01T05:57:18;-0.90;99.90
9167;DHT22;4618;48.818;9.088;2023-03-01T05:59:43;-0.80;99.90
9167;DHT22;4618;48.818;9.088;2023-03-01T06:02:09;-0.80;99.90
9167;DHT22;4618;48.818;9.088;2023-03-01T06:04:37;-0.90;99.90
9167;DHT22;4618;48.818;9.088;2023-03-01T06:07:03;-0.90;1.00
9167;DHT22;4618;48.818;9.088;2023-03-01T06:09:29;-1.00;1.00
9167;DHT22;4618;48.818;9.088;2023-03-01T06:11:54;-1.10;1.00
9167;DHT22;4618;48.818;9.088;2023-03-01T06:14:20;-1.10;1.00
9167;DHT22;4618;48.818;9.088;2023-03-01T06:16:46;-1.10;1.00
9167;DHT22;4618;48.818;9.088;2023-03-01T06:19:11;-1.20;1.00
9167;DHT22;4618;48.818;9.088;2023-03-01T06:21:37;-1.20;1.00
9167;DHT22;4618;48.818;9.088;2023-03-01T06:24:02;-1.20;1.00
9167;DHT22;4618;48.818;9.088;2023-03-01T06:26:28;-1.20;1.00
9167;DHT22;4618;48.818;9.088;2023-03-01T06:28:54;-1.30;1.00
9167;DHT22;4618;48.818;9.088;2023-03-01T06:31:19;-1.20;1.00
9167;DHT22;4618;48.818;9.088;2023-03-01T06:33:45;-1.20;1.00
9167;DHT22;4618;48.818;9.088;2023-03-01T06:36:10;-1.20;1.00
9167;DHT22;4618;48.818;9.088;2023-03-01T06:38:36;-1.20;1.00
9167;DHT22;4618;48.818;9.088;2023-03-01T06:41:01;-1.10;1.00
9167;DHT22;4618;48.818;9.088;2023-03-01T06:43:27;-1.10;1.00
9167;DHT22;4618;48.818;9.088;2023-03-01T06:45:53;-1.10;1.00
9167;DHT22;4618;48.818;9.088;2023-03-01T06:48:18;-1.20;1.00
9167;DHT22;4618;48.818;9.088;2023-03-01T06:50:44;-1.20;1.00
9167;DHT22;4618;48.818;9.088;2023-03-01T06:53:09;-1.20;1.00
9167;DHT22;4618;48.818;9.088;2023-03-01T06:55:35;-1.20;1.00
9167;DHT22;4618;48.818;9.088;2023-03-01T06:58:01;-1.30;1.00
9167;DHT22;4618;48.818;9.088;2023-03-01T07:00:28;-1.20;1.00
9167;DHT22;4618;48.818;9.088;2023-03-01T07:02:54;-1.10;1.00
9167;DHT22;4618;48.818;9.088;2023-03-01T07:05:20;-1.10;1.00
9167;DHT22;4618;48.818;9.088;2023-03-01T07:07:45;-1.00;1.00
9167;DHT22;4618;48.818;9.088;2023-03-01T07:10:11;-0.90;1.00
9167;DHT22;4618;48.818;9.088;2023-03-01T07:12:37;-0.90;99.90
9167;DHT22;4618;48.818;9.088;2023-03-01T07:15:03;-0.90;99.90
9167;DHT22;4618;48.818;9.088;2023-03-01T07:17:29;-1.00;99.90
9167;DHT22;4618;48.818;9.088;2023-03-01T07:19:55;-1.20;1.00
9167;DHT22;4618;48.818;9.088;2023-03-01T07:22:21;-1.30;1.00
9167;DHT22;4618;48.818;9.088;2023-03-01T07:24:46;-1.30;1.00
9167;DHT22;4618;48.818;9.088;2023-03-01T07:27:12;-1.30;1.00
9167;DHT22;4618;48.818;9.088;2023-03-01T07:29:37;-1.40;1.00
9167;DHT22;4618;48.818;9.088;2023-03-01T07:32:04;-1.30;1.00
9167;DHT22;4618;48.818;9.088;2023-03-01T07:34:30;-1.30;1.00
9167;DHT22;4618;48.818;9.088;2023-03-01T07:36:55;-1.30;1.00
9167;DHT22;4618;48.818;9.088;2023-03-01T07:39:21;-1.20;1.00
9167;DHT22;4618;48.818;9.088;2023-03-01T07:41:48;-1.20;1.00
9167;DHT22;4618;48.818;9.088;2023-03-01T07:44:14;-1.10;1.00
9167;DHT22;4618;48.818;9.088;2023-03-01T07:46:40;-1.10;1.00
9167;DHT22;4618;48.818;9.088;2023-03-01T07:49:06;-1.00;1.00
9167;DHT22;4618;48.818;9.088;2023-03-01T07:51:32;-0.80;1.00
9167;DHT22;4618;48.818;9.088;2023-03-01T07:53:57;-0.80;1.00
9167;DHT22;4618;48.818;9.088;2023-03-01T07:56:23;-0.60;1.00
9167;DHT22;4618;48.818;9.088;2023-03-01T07:58:48;-0.50;99.90
9167;DHT22;4618;48.818;9.088;2023-03-01T08:01:16;-0.50;99.90
9167;DHT22;4618;48.818;9.088;2023-03-01T08:03:42;-0.40;99.90
9167;DHT22;4618;48.818;9.088;2023-03-01T08:06:13;-0.20;95.90
9167;DHT22;4618;48.818;9.088;2023-03-01T08:08:39;-0.10;1.00
9167;DHT22;4618;48.818;9.088;2023-03-01T08:11:06;0.00;1.00
9167;DHT22;4618;48.818;9.088;2023-03-01T08:13:32;0.10;1.00
9167;DHT22;4618;48.818;9.088;2023-03-01T08:16:06;0.20;1.00
9167;DHT22;4618;48.818;9.088;2023-03-01T08:18:32;0.30;1.00
9167;DHT22;4618;48.818;9.088;2023-03-01T08:21:04;0.50;99.90
9167;DHT22;4618;48.818;9.088;2023-03-01T08:23:30;0.60;99.90
9167;DHT22;4618;48.818;9.088;2023-03-01T08:26:03;0.70;99.90
9167;DHT22;4618;48.818;9.088;2023-03-01T08:28:29;0.80;31.90
9167;DHT22;4618;48.818;9.088;2023-03-01T08:30:55;0.90;1.00
9167;DHT22;4618;48.818;9.088;2023-03-01T08:33:20;0.90;99.90
9167;DHT22;4618;48.818;9.088;2023-03-01T08:35:46;0.90;99.90
9167;DHT22;4618;48.818;9.088;2023-03-01T08:38:11;1.00;1.00
9167;DHT22;4618;48.818;9.088;2023-03-01T08:40:37;1.10;1.00
9167;DHT22;4618;48.818;9.088;2023-03-01T08:43:02;1.10;1.00
9167;DHT22;4618;48.818;9.088;2023-03-01T08:45:28;1.30;1.00
9167;DHT22;4618;48.818;9.088;2023-03-01T08:47:54;1.60;99.90
9167;DHT22;4618;48.818;9.088;2023-03-01T08:50:19;2.10;51.90
9167;DHT22;4618;48.818;9.088;2023-03-01T08:52:45;2.90;1.00
9167;DHT22;4618;48.818;9.088;2023-03-01T08:55:10;3.70;99.90
9167;DHT22;4618;48.818;9.088;2023-03-01T08:57:36;4.20;99.90
9167;DHT22;4618;48.818;9.088;2023-03-01T09:00:02;4.60;99.90
9167;DHT22;4618;48.818;9.088;2023-03-01T09:02:28;5.50;99.90
9167;DHT22;4618;48.818;9.088;2023-03-01T09:04:54;6.20;99.90
9167;DHT22;4618;48.818;9.088;2023-03-01T09:07:19;6.90;99.90
9167;DHT22;4618;48.818;9.088;2023-03-01T09:09:45;7.20;99.90
9167;DHT22;4618;48.818;9.088;2023-03-01T09:12:10;7.50;90.20
9167;DHT22;4618;48.818;9.088;2023-03-01T09:14:36;7.70;65.40
9167;DHT22;4618;48.818;9.088;2023-03-01T09:17:04;8.30;46.20
9167;DHT22;4618;48.818;9.088;2023-03-01T09:19:30;8.30;31.00
9167;DHT22;4618;48.818;9.088;2023-03-01T09:21:55;8.30;20.20
9167;DHT22;4618;48.818;9.088;2023-03-01T09:24:24;7.90;21.30
9167;DHT22;4618;48.818;9.088;2023-03-01T09:26:53;8.70;14.70
9167;DHT22;4618;48.818;9.088;2023-03-01T09:29:19;9.50;1.00
9167;DHT22;4618;48.818;9.088;2023-03-01T09:31:45;9.60;1.00
9167;DHT22;4618;48.818;9.088;2023-03-01T09:34:10;9.60;1.00
9167;DHT22;4618;48.818;9.088;2023-03-01T09:36:36;9.70;1.00
9167;DHT22;4618;48.818;9.088;2023-03-01T09:39:03;10.40;1.00
9167;DHT22;4618;48.818;9.088;2023-03-01T09:44:36;10.70;1.00
9167;DHT22;4618;48.818;9.088;2023-03-01T09:47:03;10.70;1.00
9167;DHT22;4618;48.818;9.088;2023-03-01T09:49:33;10.70;1.00
9167;DHT22;4618;48.818;9.088;2023-03-01T09:52:12;11.00;1.00
9167;DHT22;4618;48.818;9.088;2023-03-01T09:54:39;11.40;1.00
9167;DHT22;4618;48.818;9.088;2023-03-01T10:03:15;11.70;1.00
9167;DHT22;4618;48.818;9.088;2023-03-01T10:05:52;12.20;1.00
9167;DHT22;4618;48.818;9.088;2023-03-01T10:08:38;12.30;1.00
9167;DHT22;4618;48.818;9.088;2023-03-01T10:11:28;12.60;1.00
9167;DHT22;4618;48.818;9.088;2023-03-01T10:14:07;12.80;1.00
9167;DHT22;4618;48.818;9.088;2023-03-01T10:19:44;12.60;1.00
9167;DHT22;4618;48.818;9.088;2023-03-01T10:24:39;12.90;1.00
9167;DHT22;4618;48.818;9.088;2023-03-01T10:27:15;13.00;1.00
9167;DHT22;4618;48.818;9.088;2023-03-01T10:32:19;13.00;1.00
9167;DHT22;4618;48.818;9.088;2023-03-01T10:34:47;12.70;1.00
9167;DHT22;4618;48.818;9.088;2023-03-01T10:37:13;12.70;1.00
9167;DHT22;4618;48.818;9.088;2023-03-01T10:42:33;13.80;1.00
9167;DHT22;4618;48.818;9.088;2023-03-01T10:47:41;14.60;1.00
9167;DHT22;4618;48.818;9.088;2023-03-01T10:50:19;14.90;1.00
9167;DHT22;4618;48.818;9.088;2023-03-01T10:52:57;14.10;1.00
9167;DHT22;4618;48.818;9.088;2023-03-01T10:55:38;15.20;1.00
9167;DHT22;4618;48.818;9.088;2023-03-01T10:58:19;14.70;1.00
9167;DHT22;4618;48.818;9.088;2023-03-01T11:00:51;15.10;1.00
9167;DHT22;4618;48.818;9.088;2023-03-01T11:03:25;15.00;1.00
9167;DHT22;4618;48.818;9.088;2023-03-01T11:08:36;15.60;1.00
9167;DHT22;4618;48.818;9.088;2023-03-01T11:11:29;16.20;1.00
9167;DHT22;4618;48.818;9.088;2023-03-01T11:14:14;16.70;1.00
9167;DHT22;4618;48.818;9.088;2023-03-01T11:16:42;16.90;1.00
9167;DHT22;4618;48.818;9.088;2023-03-01T11:21:41;16.20;1.00
9167;DHT22;4618;48.818;9.088;2023-03-01T11:24:11;15.30;1.00
9167;DHT22;4618;48.818;9.088;2023-03-01T11:26:41;16.00;1.00
9167;DHT22;4618;48.818;9.088;2023-03-01T11:31:56;14.60;1.00
9167;DHT22;4618;48.818;9.088;2023-03-01T11:34:42;15.30;1.00
9167;DHT22;4618;48.818;9.088;2023-03-01T11:37:38;16.50;1.00
9167;DHT22;4618;48.818;9.088;2023-03-01T11:54:42;16.50;1.00
9167;DHT22;4618;48.818;9.088;2023-03-01T11:57:34;15.80;1.00
9167;DHT22;4618;48.818;9.088;2023-03-01T12:11:15;17.80;1.00
9167;DHT22;4618;48.818;9.088;2023-03-01T12:13:59;17.20;1.00
9167;DHT22;4618;48.818;9.088;2023-03-01T12:19:21;18.20;1.00
9167;DHT22;4618;48.818;9.088;2023-03-01T12:22:04;17.60;1.00
9167;DHT22;4618;48.818;9.088;2023-03-01T12:30:30;18.00;1.00
9167;DHT22;4618;48.818;9.088;2023-03-01T12:38:25;17.50;1.00
9167;DHT22;4618;48.818;9.088;2023-03-01T12:41:19;16.90;1.00
9167;DHT22;4618;48.818;9.088;2023-03-01T12:44:12;16.20;1.00
9167;DHT22;4618;48.818;9.088;2023-03-01T12:49:41;17.50;1.00
9167;DHT22;4618;48.818;9.088;2023-03-01T12:52:13;17.20;1.00
9167;DHT22;4618;48.818;9.088;2023-03-01T12:54:40;17.30;1.00
9167;DHT22;4618;48.818;9.088;2023-03-01T12:57:18;17.80;1.00
9167;DHT22;4618;48.818;9.088;2023-03-01T13:00:10;16.70;1.00
9167;DHT22;4618;48.818;9.088;2023-03-01T13:05:46;17.90;1.00
9167;DHT22;4618;48.818;9.088;2023-03-01T13:10:56;17.10;1.00
9167;DHT22;4618;48.818;9.088;2023-03-01T13:13:25;17.00;1.00
9167;DHT22;4618;48.818;9.088;2023-03-01T13:15:51;17.00;1.00
9167;DHT22;4618;48.818;9.088;2023-03-01T13:20:54;16.60;1.00
9167;DHT22;4618;48.818;9.088;2023-03-01T13:31:04;16.60;1.00
9167;DHT22;4618;48.818;9.088;2023-03-01T13:35:57;17.30;1.00
9167;DHT22;4618;48.818;9.088;2023-03-01T13:50:16;16.90;1.00
9167;DHT22;4618;48.818;9.088;2023-03-01T13:57:49;16.90;1.00
9167;DHT22;4618;48.818;9.088;2023-03-01T14:03:19;15.60;1.00
9167;DHT22;4618;48.818;9.088;2023-03-01T14:08:28;15.60;1.00
9167;DHT22;4618;48.818;9.088;2023-03-01T14:11:00;15.60;1.00
9167;DHT22;4618;48.818;9.088;2023-03-01T14:13:47;15.70;1.00
9167;DHT22;4618;48.818;9.088;2023-03-01T14:19:12;16.70;1.00
9167;DHT22;4618;48.818;9.088;2023-03-01T14:21:39;16.70;1.00
9167;DHT22;4618;48.818;9.088;2023-03-01T14:26:35;17.00;1.00
9167;DHT22;4618;48.818;9.088;2023-03-01T14:29:01;16.60;1.00
9167;DHT22;4618;48.818;9.088;2023-03-01T14:31:39;16.80;1.00
9167;DHT22;4618;48.818;9.088;2023-03-01T14:34:05;16.00;1.00
9167;DHT22;4618;48.818;9.088;2023-03-01T14:36:33;15.30;1.00
9167;DHT22;4618;48.818;9.088;2023-03-01T14:38:59;15.30;1.00
9167;DHT22;4618;48.818;9.088;2023-03-01T14:41:32;15.20;1.00
9167;DHT22;4618;48.818;9.088;2023-03-01T14:44:02;14.70;1.00
9167;DHT22;4618;48.818;9.088;2023-03-01T14:46:37;14.90;1.00
9167;DHT22;4618;48.818;9.088;2023-03-01T14:49:11;15.10;1.00
9167;DHT22;4618;48.818;9.088;2023-03-01T14:51:43;14.60;1.00
9167;DHT22;4618;48.818;9.088;2023-03-01T14:57:01;14.70;1.00
9167;DHT22;4618;48.818;9.088;2023-03-01T14:59:27;14.20;1.00
9167;DHT22;4618;48.818;9.088;2023-03-01T15:01:55;14.00;1.00
9167;DHT22;4618;48.818;9.088;2023-03-01T15:04:22;14.40;1.00
9167;DHT22;4618;48.818;9.088;2023-03-01T15:06:51;14.90;1.00
9167;DHT22;4618;48.818;9.088;2023-03-01T15:09:17;14.70;1.00
9167;DHT22;4618;48.818;9.088;2023-03-01T15:11:43;14.80;1.00
9167;DHT22;4618;48.818;9.088;2023-03-01T15:14:29;14.50;1.00
9167;DHT22;4618;48.818;9.088;2023-03-01T15:16:55;13.90;1.00
9167;DHT22;4618;48.818;9.088;2023-03-01T15:19:23;13.50;1.00
9167;DHT22;4618;48.818;9.088;2023-03-01T15:21:52;13.10;1.00
9167;DHT22;4618;48.818;9.088;2023-03-01T15:24:24;12.80;1.00
9167;DHT22;4618;48.818;9.088;2023-03-01T15:26:58;12.70;1.00
9167;DHT22;4618;48.818;9.088;2023-03-01T15:29:31;12.70;1.00
9167;DHT22;4618;48.818;9.088;2023-03-01T15:32:05;12.60;1.00
9167;DHT22;4618;48.818;9.088;2023-03-01T15:34:36;12.40;1.00
9167;DHT22;4618;48.818;9.088;2023-03-01T15:37:04;12.10;1.00
9167;DHT22;4618;48.818;9.088;2023-03-01T15:41:56;12.50;1.00
9167;DHT22;4618;48.818;9.088;2023-03-01T15:44:31;11.90;1.00
9167;DHT22;4618;48.818;9.088;2023-03-01T15:46:57;11.50;1.00
9167;DHT22;4618;48.818;9.088;2023-03-01T15:49:36;11.20;1.00
9167;DHT22;4618;48.818;9.088;2023-03-01T15:52:03;10.90;1.00
9167;DHT22;4618;48.818;9.088;2023-03-01T15:54:30;11.00;1.00
9167;DHT22;4618;48.818;9.088;2023-03-01T15:56:56;11.10;1.00
9167;DHT22;4618;48.818;9.088;2023-03-01T15:59:22;11.10;1.00
9167;DHT22;4618;48.818;9.088;2023-03-01T16:01:48;10.90;1.00
9167;DHT22;4618;48.818;9.088;2023-03-01T16:04:15;10.50;1.00
9167;DHT22;4618;48.818;9.088;2023-03-01T16:06:53;10.40;1.00
9167;DHT22;4618;48.818;9.088;2023-03-01T16:09:25;10.20;1.00
9167;DHT22;4618;48.818;9.088;2023-03-01T16:11:52;9.90;1.00
9167;DHT22;4618;48.818;9.088;2023-03-01T16:14:18;9.70;1.00
9167;DHT22;4618;48.818;9.088;2023-03-01T16:16:44;9.80;1.00
9167;DHT22;4618;48.818;9.088;2023-03-01T16:19:10;9.70;1.00
9167;DHT22;4618;48.818;9.088;2023-03-01T16:21:37;9.40;1.00
9167;DHT22;4618;48.818;9.088;2023-03-01T16:24:03;9.30;1.00
9167;DHT22;4618;48.818;9.088;2023-03-01T16:26:29;9.00;1.00
9167;DHT22;4618;48.818;9.088;2023-03-01T16:28:56;8.90;1.00
9167;DHT22;4618;48.818;9.088;2023-03-01T16:31:22;8.80;1.00
9167;DHT22;4618;48.818;9.088;2023-03-01T16:33:48;8.60;1.00
9167;DHT22;4618;48.818;9.088;2023-03-01T16:36:19;8.40;1.00
9167;DHT22;4618;48.818;9.088;2023-03-01T16:38:45;8.10;1.00
9167;DHT22;4618;48.818;9.088;2023-03-01T16:41:13;7.80;1.00
9167;DHT22;4618;48.818;9.088;2023-03-01T16:43:40;7.50;1.00
9167;DHT22;4618;48.818;9.088;2023-03-01T16:46:11;7.40;1.00
9167;DHT22;4618;48.818;9.088;2023-03-01T16:48:37;7.20;1.00
9167;DHT22;4618;48.818;9.088;2023-03-01T16:51:04;6.90;1.00
9167;DHT22;4618;48.818;9.088;2023-03-01T16:53:30;6.70;1.00
9167;DHT22;4618;48.818;9.088;2023-03-01T16:55:56;6.40;1.00
9167;DHT22;4618;48.818;9.088;2023-03-01T16:58:22;6.20;1.00
9167;DHT22;4618;48.818;9.088;2023-03-01T17:00:53;6.00;1.00
9167;DHT22;4618;48.818;9.088;2023-03-01T17:03:20;5.80;1.00
9167;DHT22;4618;48.818;9.088;2023-03-01T17:05:46;5.70;1.00
9167;DHT22;4618;48.818;9.088;2023-03-01T17:08:12;5.40;1.00
9167;DHT22;4618;48.818;9.088;2023-03-01T17:10:38;5.30;1.00
9167;DHT22;4618;48.818;9.088;2023-03-01T17:13:03;5.20;1.00
9167;DHT22;4618;48.818;9.088;2023-03-01T17:15:29;5.20;1.00
9167;DHT22;4618;48.818;9.088;2023-03-01T17:17:55;5.00;1.00
9167;DHT22;4618;48.818;9.088;2023-03-01T17:20:20;4.90;1.00
9167;DHT22;4618;48.818;9.088;2023-03-01T17:22:46;4.80;1.00
9167;DHT22;4618;48.818;9.088;2023-03-01T17:25:12;4.70;1.00
9167;DHT22;4618;48.818;9.088;2023-03-01T17:27:38;4.80;2.00
9167;DHT22;4618;48.818;9.088;2023-03-01T17:30:05;4.70;7.30
9167;DHT22;4618;48.818;9.088;2023-03-01T17:32:31;4.50;23.00
9167;DHT22;4618;48.818;9.088;2023-03-01T17:34:57;4.50;31.00
9167;DHT22;4618;48.818;9.088;2023-03-01T17:37:22;4.40;49.50
9167;DHT22;4618;48.818;9.088;2023-03-01T17:39:49;4.30;72.40
9167;DHT22;4618;48.818;9.088;2023-03-01T17:42:14;4.20;82.30
9167;DHT22;4618;48.818;9.088;2023-03-01T17:44:40;4.10;98.30
9167;DHT22;4618;48.818;9.088;2023-03-01T17:47:05;4.00;99.90
9167;DHT22;4618;48.818;9.088;2023-03-01T17:49:32;3.80;99.90
9167;DHT22;4618;48.818;9.088;2023-03-01T17:51:57;4.00;99.90
9167;DHT22;4618;48.818;9.088;2023-03-01T17:54:23;3.90;99.90
9167;DHT22;4618;48.818;9.088;2023-03-01T17:56:49;3.80;99.90
9167;DHT22;4618;48.818;9.088;2023-03-01T17:59:15;3.70;99.90
9167;DHT22;4618;48.818;9.088;2023-03-01T18:01:44;3.60;99.90
9167;DHT22;4618;48.818;9.088;2023-03-01T18:04:10;3.50;99.90
9167;DHT22;4618;48.818;9.088;2023-03-01T18:06:36;3.40;99.90
9167;DHT22;4618;48.818;9.088;2023-03-01T18:09:02;3.40;99.90
9167;DHT22;4618;48.818;9.088;2023-03-01T18:11:28;3.30;99.90
9167;DHT22;4618;48.818;9.088;2023-03-01T18:13:54;3.10;99.90
9167;DHT22;4618;48.818;9.088;2023-03-01T18:16:21;3.10;99.90
9167;DHT22;4618;48.818;9.088;2023-03-01T18:18:47;3.00;99.90
9167;DHT22;4618;48.818;9.088;2023-03-01T18:21:13;2.90;99.90
9167;DHT22;4618;48.818;9.088;2023-03-01T18:23:40;2.80;99.90
9167;DHT22;4618;48.818;9.088;2023-03-01T18:26:08;2.60;99.90
9167;DHT22;4618;48.818;9.088;2023-03-01T18:28:34;2.60;99.90
9167;DHT22;4618;48.818;9.088;2023-03-01T18:31:02;2.60;1.00
9167;DHT22;4618;48.818;9.088;2023-03-01T18:33:31;2.70;1.00
9167;DHT22;4618;48.818;9.088;2023-03-01T18:35:57;2.60;1.00
9167;DHT22;4618;48.818;9.088;2023-03-01T18:38:23;2.60;1.00
9167;DHT22;4618;48.818;9.088;2023-03-01T18:40:51;2.60;1.00